Time;durP1;ratioP1;P1;durP2;ratioP2;P2;SDS_P1;SDS_P2;PMS_P1;PMS_P2;Temp;Humidity;BMP_temperature;BMP_pressure;BME280_temperature;BME280_humidity;BME280_pressure;Samples;Min_cycle;Max_cycle;Signal;HPM_P1;HPM_P2
2022/06/12 00:01:06;;;;;;;6.75;2.70;;;17.50;99.90;17.60;98636.00;;;;5001925;28;82199;-57
2022/06/12 00:03:33;;;;;;;5.05;3.05;;;;;17.70;98642.00;;;;4999566;28;82201;-58
2022/06/12 00:06:01;;;;;;;5.88;3.75;;;17.70;99.90;17.80;98640.00;;;;5003510;28;81867;-60
2022/06/12 00:08:32;;;;;;;7.60;4.35;;;17.70;99.90;17.80;98642.00;;;;5002876;28;82091;-60
2022/06/12 00:11:01;;;;;;;9.80;5.30;;;17.70;99.90;17.80;98647.00;;;;5002710;28;82793;-58
2022/06/12 00:13:37;;;;;;;8.82;4.90;;;17.70;99.90;17.70;98645.00;;;;5002862;28;81609;-60
2022/06/12 00:16:06;;;;;;;8.75;4.63;;;17.60;99.90;17.70;98644.00;;;;5003197;28;81612;-60
2022/06/12 00:18:33;;;;;;;9.13;5.60;;;;;17.70;98644.00;;;;4984988;28;82440;-60
2022/06/12 00:21:12;;;;;;;11.40;6.40;;;17.60;99.90;17.70;98643.00;;;;5003561;28;82150;-59
2022/06/12 00:23:41;;;;;;;13.52;7.30;;;;;17.70;98649.00;;;;5003090;28;81730;-59
2022/06/12 00:26:08;;;;;;;13.05;6.93;;;;;17.70;98655.00;;;;5003399;28;81933;-61
2022/06/12 00:28:35;;;;;;;10.60;6.43;;;;;17.70;98655.00;;;;5002900;28;82122;-56
2022/06/12 00:31:01;;;;;;;16.38;6.80;;;17.70;99.90;17.70;98649.00;;;;5003270;28;82594;-60
2022/06/12 00:33:28;;;;;;;13.00;7.53;;;17.60;99.90;17.60;98656.00;;;;5003069;28;81522;-60
2022/06/12 00:35:54;;;;;;;13.40;6.38;;;17.70;99.90;17.60;98646.00;;;;5002818;28;82272;-60
2022/06/12 00:38:21;;;;;;;11.82;6.38;;;;;17.60;98661.00;;;;5002692;28;83528;-60
2022/06/12 00:40:47;;;;;;;9.40;5.90;;;17.30;99.90;17.50;98656.00;;;;5001855;28;82873;-60
2022/06/12 00:43:14;;;;;;;12.85;6.65;;;;;17.40;98651.00;;;;5001873;28;81603;-60
2022/06/12 00:45:48;;;;;;;13.63;7.75;;;17.30;99.90;17.30;98653.00;;;;5002289;28;82182;-60
2022/06/12 00:48:30;;;;;;;11.80;7.63;;;17.20;99.90;17.20;98656.00;;;;5003785;28;82190;-60
2022/06/12 00:51:04;;;;;;;13.13;8.70;;;17.20;99.90;17.20;98651.00;;;;5003220;28;82548;-60
2022/06/12 00:53:55;;;;;;;11.63;7.25;;;;;17.10;98657.00;;;;4985431;28;82204;-60
2022/06/12 00:56:28;;;;;;;12.98;8.35;;;16.80;99.90;17.00;98649.00;;;;4985630;28;81930;-60
2022/06/12 00:59:04;;;;;;;12.55;7.72;;;16.80;99.90;16.90;98640.00;;;;4985160;28;82183;-60
2022/06/12 01:01:37;;;;;;;12.57;7.38;;;;;16.70;98635.00;;;;4978585;28;84899;-60
2022/06/12 01:06:53;;;;;;;14.25;8.68;;;16.60;99.90;16.70;98645.00;;;;5000356;28;81896;-60
2022/06/12 01:09:30;;;;;;;20.17;9.52;;;16.60;99.90;16.70;98649.00;;;;5002215;28;83525;-60
2022/06/12 01:12:01;;;;;;;13.23;9.45;;;16.60;99.90;16.60;98645.00;;;;5001878;28;83773;-60
2022/06/12 01:14:33;;;;;;;12.18;8.88;;;16.60;99.90;16.60;98643.00;;;;5002287;28;82266;-60
2022/06/12 01:17:02;;;;;;;23.90;9.82;;;16.70;99.90;16.60;98650.00;;;;4971226;28;82725;-60
2022/06/12 01:19:34;;;;;;;17.02;9.80;;;;;16.60;98652.00;;;;4996990;28;82290;-60
2022/06/12 01:22:26;;;;;;;15.73;9.50;;;16.50;99.90;16.50;98639.00;;;;5004500;28;82629;-60
2022/06/12 01:25:22;;;;;;;16.45;9.35;;;16.50;99.90;16.50;98644.00;;;;5003820;28;81911;-60
2022/06/12 01:28:35;;;;;;;17.40;10.68;;;16.50;99.90;16.50;98650.00;;;;5001811;28;83309;-60
2022/06/12 01:31:35;;;;;;;13.55;10.80;;;;;16.50;98659.00;;;;5002057;28;82684;-60
2022/06/12 01:34:13;;;;;;;12.13;8.45;;;16.20;99.90;16.40;98661.00;;;;4984433;28;82656;-60
2022/06/12 01:36:45;;;;;;;13.57;7.88;;;;;16.30;98659.00;;;;5002350;28;82430;-60
2022/06/12 01:39:37;;;;;;;15.13;9.02;;;16.30;99.90;16.30;98651.00;;;;5002628;28;82642;-60
2022/06/12 01:42:15;;;;;;;12.90;8.20;;;;;16.30;98647.00;;;;5003387;28;82300;-60
2022/06/12 01:44:49;;;;;;;13.23;7.88;;;;;16.30;98650.00;;;;5005593;28;81950;-60
2022/06/12 01:47:35;;;;;;;9.70;6.07;;;16.40;99.90;16.30;98648.00;;;;4988242;28;82358;-60
2022/06/12 01:50:23;;;;;;;12.23;7.88;;;16.40;99.90;16.40;98645.00;;;;5002231;28;82234;-60
2022/06/12 01:53:11;;;;;;;10.23;7.95;;;;;16.40;98643.00;;;;4985920;28;82392;-60
2022/06/12 01:55:53;;;;;;;12.13;8.23;;;16.50;99.90;16.40;98651.00;;;;5003488;28;83571;-60
2022/06/12 01:58:22;;;;;;;8.75;6.18;;;;;16.40;98639.00;;;;4989341;28;82464;-60
2022/06/12 02:01:17;;;;;;;11.10;6.65;;;16.50;99.90;16.40;98637.00;;;;5003350;28;82369;-60
2022/06/12 02:04:18;;;;;;;11.15;6.22;;;16.50;99.90;16.50;98647.00;;;;5003334;28;85274;-60
2022/06/12 02:07:15;;;;;;;16.73;9.75;;;16.60;99.90;16.50;98653.00;;;;5002126;28;83654;-60
2022/06/12 02:09:52;;;;;;;17.73;9.20;;;16.50;99.90;16.50;98656.00;;;;5001925;28;82451;-60
2022/06/12 02:15:16;;;;;;;9.45;7.90;;;16.80;99.90;16.50;98669.00;;;;4990121;28;82487;-60
2022/06/12 02:17:56;;;;;;;14.50;9.00;;;16.90;99.90;16.60;98669.00;;;;5003487;28;83476;-60
2022/06/12 02:20:27;;;;;;;12.70;9.50;;;16.60;99.90;16.60;98669.00;;;;5004615;28;82343;-60
2022/06/12 02:22:55;;;;;;;13.18;9.38;;;;;16.70;98669.00;;;;4986606;28;83132;-60
2022/06/12 02:25:33;;;;;;;14.68;8.20;;;;;16.60;98672.00;;;;5004451;28;83445;-60
2022/06/12 02:28:11;;;;;;;10.50;7.10;;;16.70;99.90;16.70;98670.00;;;;4986390;28;82729;-60
2022/06/12 02:30:46;;;;;;;11.70;7.15;;;16.80;99.90;16.70;98667.00;;;;5004056;28;82646;-60
2022/06/12 02:33:17;;;;;;;11.50;6.45;;;16.70;99.90;16.70;98655.00;;;;4987408;28;82045;-60
2022/06/12 02:35:57;;;;;;;10.23;6.85;;;16.70;99.90;16.70;98662.00;;;;5004440;28;82236;-60
2022/06/12 02:38:34;;;;;;;9.23;6.80;;;16.70;99.90;16.80;98661.00;;;;5004250;28;84153;-60
2022/06/12 02:41:07;;;;;;;9.55;7.22;;;16.80;99.90;16.80;98653.00;;;;4986503;28;82808;-60
2022/06/12 02:43:37;;;;;;;13.10;8.60;;;16.90;99.90;16.90;98652.00;;;;5003806;28;82550;-60
2022/06/12 02:46:12;;;;;;;15.32;8.80;;;17.00;99.90;17.10;98658.00;;;;4987096;28;82758;-60
2022/06/12 02:48:40;;;;;;;11.55;8.77;;;;;17.20;98661.00;;;;4985157;28;83616;-60
2022/06/12 02:51:12;;;;;;;14.68;9.18;;;17.20;99.90;17.30;98642.00;;;;5004125;28;83153;-60
2022/06/12 02:53:46;;;;;;;22.80;10.27;;;17.30;99.90;17.40;98650.00;;;;5001335;28;82033;-60
2022/06/12 02:57:21;;;;;;;17.35;9.45;;;17.40;99.90;17.50;98652.00;;;;4996977;28;83148;-60
2022/06/12 03:00:06;;;;;;;12.75;9.32;;;17.50;99.90;17.70;98648.00;;;;4959503;28;82361;-60
2022/06/12 03:02:39;;;;;;;12.23;8.43;;;17.50;99.90;17.70;98656.00;;;;4996604;28;82310;-60
2022/06/12 03:05:28;;;;;;;17.60;9.32;;;;;17.80;98657.00;;;;4986461;28;82219;-60
2022/06/12 03:08:00;;;;;;;18.52;9.52;;;17.70;99.90;17.80;98667.00;;;;4998763;28;81742;-60
2022/06/12 03:10:35;;;;;;;15.57;8.13;;;;;17.80;98666.00;;;;4987090;28;81955;-60
2022/06/12 03:13:05;;;;;;;13.13;8.45;;;17.80;99.90;17.90;98659.00;;;;5004500;28;82620;-60
2022/06/12 03:16:18;;;;;;;13.38;7.22;;;17.90;99.90;18.00;98666.00;;;;5004253;28;82747;-60
2022/06/12 03:18:54;;;;;;;7.50;4.90;;;17.90;99.90;18.00;98666.00;;;;5003080;28;82614;-60
2022/06/12 03:21:41;;;;;;;8.80;5.70;;;17.90;99.90;18.00;98670.00;;;;4982642;28;82586;-60
2022/06/12 03:24:13;;;;;;;12.00;5.70;;;18.00;99.90;18.00;98673.00;;;;5004674;28;82951;-60
2022/06/12 03:26:47;;;;;;;9.27;5.25;;;;;18.00;98670.00;;;;5004223;28;81867;-60
2022/06/12 03:29:17;;;;;;;9.52;5.15;;;;;18.20;98669.00;;;;4996917;28;82668;-60
2022/06/12 03:32:14;;;;;;;8.98;4.80;;;;;18.30;98667.00;;;;5004048;28;83627;-59
2022/06/12 03:34:46;;;;;;;6.47;4.45;;;;;18.50;98675.00;;;;4998214;28;82510;-60
2022/06/12 03:37:35;;;;;;;7.40;4.22;;;18.50;99.90;18.70;98668.00;;;;5001867;28;82715;-59
2022/06/12 03:40:09;;;;;;;9.05;5.10;;;18.60;99.90;18.80;98668.00;;;;5001898;28;82361;-59
2022/06/12 03:42:41;;;;;;;8.00;5.50;;;;;19.00;98682.00;;;;4978212;28;84772;-59
2022/06/12 03:45:14;;;;;;;8.40;4.63;;;18.80;99.90;19.00;98678.00;;;;4983981;28;83543;-59
2022/06/12 03:47:54;;;;;;;7.88;5.40;;;18.90;99.90;19.10;98669.00;;;;4982939;28;81948;-59
2022/06/12 03:50:44;;;;;;;8.57;4.53;;;18.90;99.90;19.10;98674.00;;;;4983084;28;82221;-59
2022/06/12 03:53:24;;;;;;;6.88;4.20;;;18.90;99.90;19.10;98676.00;;;;4979690;28;83414;-60
2022/06/12 03:59:00;;;;;;;8.90;5.57;;;19.10;99.90;19.20;98676.00;;;;4982870;28;82099;-59
2022/06/12 04:01:29;;;;;;;11.18;5.68;;;19.00;99.90;19.20;98668.00;;;;4977267;28;83429;-60
2022/06/12 04:03:56;;;;;;;10.02;6.60;;;;;19.40;98672.00;;;;4981549;28;82686;-59
2022/06/12 04:06:25;;;;;;;12.57;6.97;;;19.20;99.90;19.50;98674.00;;;;4982465;28;83550;-59
2022/06/12 04:09:01;;;;;;;11.65;6.88;;;19.30;99.90;19.50;98683.00;;;;4982875;28;82695;-60
2022/06/12 04:11:29;;;;;;;15.65;8.35;;;19.00;99.90;19.50;98680.00;;;;4983096;28;82095;-59
2022/06/12 04:13:58;;;;;;;11.75;7.50;;;19.20;99.90;19.40;98675.00;;;;4983001;28;82550;-59
2022/06/12 04:16:40;;;;;;;11.10;7.60;;;19.20;99.90;19.40;98675.00;;;;4983057;28;82754;-60
2022/06/12 04:19:17;;;;;;;13.82;7.75;;;19.20;99.90;19.40;98671.00;;;;4982486;28;82443;-59
2022/06/12 04:22:02;;;;;;;12.52;8.55;;;19.20;99.90;19.40;98682.00;;;;4981411;28;82390;-59
2022/06/12 04:24:54;;;;;;;14.35;8.20;;;19.10;99.90;19.30;98684.00;;;;4982219;28;82634;-60
2022/06/12 04:27:28;;;;;;;12.30;8.73;;;;;19.20;98690.00;;;;4982409;28;82126;-59
2022/06/12 04:30:14;;;;;;;12.52;8.85;;;18.90;99.90;19.10;98684.00;;;;4982083;28;82305;-60
2022/06/12 04:32:41;;;;;;;10.57;8.20;;;;;19.10;98683.00;;;;4982804;28;82532;-59
2022/06/12 04:35:08;;;;;;;16.02;8.85;;;;;19.00;98676.00;;;;4981085;28;84750;-60
2022/06/12 04:37:34;;;;;;;10.48;7.72;;;;;19.00;98680.00;;;;4982634;28;83473;-60
2022/06/12 04:40:05;;;;;;;11.23;7.68;;;18.90;99.90;19.10;98675.00;;;;4982940;28;81960;-60
2022/06/12 04:42:33;;;;;;;10.75;8.25;;;19.00;99.90;19.20;98686.00;;;;5001936;28;83033;-59
2022/06/12 04:45:00;;;;;;;10.70;8.88;;;19.00;99.90;19.20;98672.00;;;;5002601;28;82355;-58
2022/06/12 04:47:29;;;;;;;15.75;8.68;;;19.00;99.90;19.20;98676.00;;;;5002123;28;82369;-58
2022/06/12 04:49:56;;;;;;;16.90;8.82;;;19.00;99.90;19.20;98685.00;;;;5002705;28;82354;-58
2022/06/12 04:52:25;;;;;;;13.20;8.95;;;19.00;99.90;19.20;98682.00;;;;4986330;28;82407;-58
2022/06/12 04:54:52;;;;;;;14.48;9.45;;;;;19.20;98679.00;;;;5005964;28;83640;-58
2022/06/12 04:57:19;;;;;;;13.45;9.35;;;;;19.10;98682.00;;;;5005575;28;82544;-59
2022/06/12 04:59:47;;;;;;;12.77;8.90;;;18.90;99.90;19.10;98684.00;;;;5005590;28;82936;-60
2022/06/12 05:02:14;;;;;;;11.90;8.80;;;19.00;99.90;19.00;98681.00;;;;5002560;28;82722;-60
2022/06/12 05:04:41;;;;;;;12.57;8.73;;;;;19.00;98686.00;;;;5005970;28;81924;-60
2022/06/12 05:07:11;;;;;;;18.92;8.90;;;18.90;99.90;19.10;98684.00;;;;5005797;28;82877;-60
2022/06/12 05:09:41;;;;;;;10.55;8.02;;;;;19.10;98691.00;;;;5005860;28;82437;-60
2022/06/12 05:12:12;;;;;;;12.45;8.65;;;18.90;99.90;19.10;98683.00;;;;5005848;28;82550;-60
2022/06/12 05:14:38;;;;;;;11.90;8.07;;;;;19.20;98695.00;;;;5002872;28;82705;-60
2022/06/12 05:17:11;;;;;;;10.57;7.75;;;19.10;99.90;19.30;98684.00;;;;5005654;28;82407;-60
2022/06/12 05:19:39;;;;;;;10.68;7.43;;;;;19.50;98684.00;;;;4971515;28;82822;-60
2022/06/12 05:22:08;;;;;;;10.82;7.47;;;19.30;99.90;19.50;98696.00;;;;5005777;28;82384;-60
2022/06/12 05:24:35;;;;;;;12.75;8.07;;;19.30;99.90;19.50;98698.00;;;;5005043;28;83444;-60
2022/06/12 05:27:06;;;;;;;13.77;8.57;;;19.30;99.90;19.50;98700.00;;;;5001974;28;84669;-60
2022/06/12 05:29:37;;;;;;;12.40;7.82;;;19.30;99.90;19.50;98698.00;;;;4987824;28;82378;-60
2022/06/12 05:32:04;;;;;;;11.95;8.45;;;19.30;99.90;19.60;98693.00;;;;4988143;28;82819;-60
2022/06/12 05:34:32;;;;;;;10.55;8.02;;;;;19.60;98695.00;;;;5004919;28;82713;-60
2022/06/12 05:36:58;;;;;;;11.23;9.48;;;19.40;99.90;19.60;98697.00;;;;4987336;28;83468;-60
2022/06/12 05:39:25;;;;;;;13.07;8.23;;;19.40;99.90;19.60;98695.00;;;;5005475;28;83186;-60
2022/06/12 05:41:52;;;;;;;10.57;9.20;;;19.50;99.90;19.70;98697.00;;;;5004597;28;82141;-60
2022/06/12 05:44:20;;;;;;;10.98;8.45;;;;;19.90;98699.00;;;;5003519;28;83165;-60
2022/06/12 05:46:47;;;;;;;11.40;8.82;;;;;20.00;98697.00;;;;5005558;28;82251;-60
2022/06/12 05:49:14;;;;;;;12.73;9.07;;;19.70;99.90;20.00;98692.00;;;;5004601;28;83988;-60
2022/06/12 05:51:40;;;;;;;10.85;8.20;;;;;20.20;98704.00;;;;5004515;28;82509;-60
2022/06/12 05:54:07;;;;;;;12.43;7.88;;;;;20.30;98703.00;;;;5005116;28;82702;-60
2022/06/12 05:56:34;;;;;;;12.25;8.82;;;;;20.40;98714.00;;;;5005448;28;82457;-60
2022/06/12 05:59:01;;;;;;;9.55;7.55;;;20.10;99.90;20.40;98703.00;;;;5005161;28;81853;-60
2022/06/12 06:01:28;;;;;;;14.95;7.85;;;20.10;99.90;20.60;98706.00;;;;4987830;28;82313;-60
2022/06/12 06:03:55;;;;;;;11.20;8.80;;;;;20.70;98709.00;;;;5004398;28;82689;-60
2022/06/12 06:06:26;;;;;;;11.43;7.38;;;;;20.80;98700.00;;;;5001955;28;83630;-61
2022/06/12 06:08:53;;;;;;;12.63;7.68;;;;;20.90;98697.00;;;;5005617;28;82940;-60
2022/06/12 06:11:19;;;;;;;12.18;7.55;;;20.70;99.90;21.00;98698.00;;;;5005064;28;83032;-60
2022/06/12 06:13:46;;;;;;;13.32;7.55;;;;;21.20;98696.00;;;;5003676;28;83485;-60
2022/06/12 06:16:12;;;;;;;10.27;8.10;;;;;21.30;98703.00;;;;5003796;28;84346;-60
2022/06/12 06:18:40;;;;;;;13.65;7.82;;;21.10;99.90;21.40;98698.00;;;;5004579;28;81872;-60
2022/06/12 06:21:11;;;;;;;11.38;8.00;;;;;21.60;98694.00;;;;5004291;28;82411;-60
2022/06/12 06:23:39;;;;;;;13.73;8.65;;;21.40;99.90;21.80;98703.00;;;;5004538;28;82654;-60
2022/06/12 06:26:06;;;;;;;14.45;8.30;;;;;21.80;98706.00;;;;5004839;28;83860;-61
2022/06/12 06:28:33;;;;;;;11.27;7.47;;;21.50;99.90;21.80;98703.00;;;;5004529;28;82306;-61
2022/06/12 06:30:59;;;;;;;12.52;8.02;;;;;21.90;98699.00;;;;5004668;28;83406;-60
2022/06/12 06:33:26;;;;;;;9.10;7.30;;;;;21.80;98699.00;;;;5004525;28;81974;-61
2022/06/12 06:35:52;;;;;;;13.40;8.52;;;;;21.70;98690.00;;;;5002350;28;83596;-61
2022/06/12 06:38:19;;;;;;;12.40;9.15;;;21.10;99.90;21.50;98690.00;;;;5002520;28;82966;-61
2022/06/12 06:40:47;;;;;;;11.80;7.15;;;21.00;99.90;21.30;98686.00;;;;5002465;28;82246;-61
2022/06/12 06:43:14;;;;;;;10.43;6.93;;;;;21.10;98685.00;;;;5003364;28;82015;-61
2022/06/12 06:48:27;;;;;;;12.65;7.40;;;20.90;99.90;21.10;98681.00;;;;5002738;28;82574;-60
2022/06/12 06:50:54;;;;;;;15.13;8.00;;;;;21.10;98683.00;;;;5000295;28;83693;-61
2022/06/12 06:53:21;;;;;;;11.02;8.40;;;;;21.10;98665.00;;;;5003429;28;82608;-61
2022/06/12 06:55:48;;;;;;;15.57;8.18;;;21.40;99.90;21.20;98665.00;;;;4988663;28;83716;-61
2022/06/12 06:58:20;;;;;;;12.77;7.68;;;21.40;99.90;21.50;98667.00;;;;5003256;28;82614;-61
2022/06/12 07:00:48;;;;;;;10.43;7.10;;;21.60;99.90;21.80;98664.00;;;;5001948;28;82351;-61
2022/06/12 07:03:15;;;;;;;14.70;7.35;;;21.60;99.90;21.90;98665.00;;;;5003691;28;83759;-61
2022/06/12 07:05:45;;;;;;;11.00;7.20;;;21.70;99.90;21.90;98669.00;;;;5003643;28;83897;-60
2022/06/12 07:08:12;;;;;;;8.65;6.85;;;;;21.90;98661.00;;;;5004286;28;82159;-61
2022/06/12 07:10:39;;;;;;;14.95;6.80;;;;;21.90;98662.00;;;;5003847;28;82479;-60
2022/06/12 07:13:06;;;;;;;10.90;7.32;;;21.60;99.90;21.90;98659.00;;;;5003277;28;82700;-60
2022/06/12 07:15:34;;;;;;;9.60;6.40;;;21.50;99.90;21.80;98658.00;;;;5002078;28;82340;-60
2022/06/12 07:18:02;;;;;;;9.57;6.55;;;21.40;99.90;21.70;98661.00;;;;5003883;28;81893;-60
2022/06/12 07:20:33;;;;;;;9.75;6.05;;;21.40;99.90;21.60;98672.00;;;;5003213;28;82434;-62
2022/06/12 07:23:03;;;;;;;10.57;6.60;;;;;21.60;98662.00;;;;5002611;28;82634;-60
2022/06/12 07:25:32;;;;;;;8.73;5.80;;;21.40;99.90;21.50;98658.00;;;;5002801;28;83989;-60
2022/06/12 07:27:59;;;;;;;10.20;5.75;;;;;21.60;98654.00;;;;4999765;28;82915;-60
2022/06/12 07:30:25;;;;;;;9.23;5.85;;;21.60;99.90;21.70;98659.00;;;;5003382;28;82217;-60
2022/06/12 07:32:52;;;;;;;7.97;5.90;;;;;21.90;98653.00;;;;4985411;28;84270;-60
2022/06/12 07:35:19;;;;;;;10.80;5.97;;;;;21.90;98664.00;;;;5002614;28;82411;-60
2022/06/12 07:37:46;;;;;;;8.13;5.40;;;;;22.00;98656.00;;;;4999113;28;82301;-60
2022/06/12 07:40:23;;;;;;;8.93;5.30;;;22.00;99.90;22.10;98665.00;;;;4992752;28;83531;-60
2022/06/12 07:42:50;;;;;;;7.47;5.22;;;;;22.40;98653.00;;;;4998154;28;82312;-60
2022/06/12 07:45:17;;;;;;;8.65;5.60;;;22.60;99.90;22.70;98644.00;;;;5002905;28;82356;-60
2022/06/12 07:47:44;;;;;;;9.85;5.53;;;22.90;99.90;23.00;98652.00;;;;5002781;28;82013;-60
2022/06/12 07:50:11;;;;;;;7.65;5.97;;;23.00;99.90;23.20;98653.00;;;;5003096;28;82339;-60
2022/06/12 07:52:39;;;;;;;10.13;6.03;;;23.00;99.90;23.40;98656.00;;;;4999140;28;84668;-58
2022/06/12 07:55:09;;;;;;;10.50;5.90;;;23.10;99.90;23.80;98651.00;;;;4988140;28;84117;-59
2022/06/12 07:57:37;;;;;;;8.93;5.97;;;23.50;99.90;24.30;98656.00;;;;5001278;28;82061;-58
2022/06/12 08:00:06;;;;;;;12.07;6.60;;;23.90;99.90;24.10;98647.00;;;;4978761;27;83603;-58
2022/06/12 08:02:38;;;;;;;7.15;4.85;;;23.70;99.90;24.30;98647.00;;;;4999922;28;83959;-58
2022/06/12 08:05:05;;;;;;;9.93;4.90;;;24.00;99.90;24.40;98636.00;;;;5001028;28;81888;-59
2022/06/12 08:07:32;;;;;;;7.40;4.88;;;23.90;99.90;24.30;98646.00;;;;5001691;28;81866;-59
2022/06/12 08:09:58;;;;;;;7.10;4.63;;;23.90;99.90;24.20;98645.00;;;;5001519;28;82347;-59
2022/06/12 08:12:24;;;;;;;7.97;4.80;;;23.90;99.90;24.20;98641.00;;;;5001172;28;82819;-59
2022/06/12 08:14:50;;;;;;;9.50;4.65;;;24.00;99.90;24.00;98642.00;;;;4983374;28;82396;-59
2022/06/12 08:17:16;;;;;;;10.18;5.40;;;23.70;99.90;24.00;98636.00;;;;5002851;28;82908;-58
2022/06/12 08:22:26;;;;;;;6.25;4.70;;;23.90;99.90;24.10;98641.00;;;;4998333;28;82875;-58
2022/06/12 08:24:52;;;;;;;7.28;4.88;;;23.90;99.90;24.30;98637.00;;;;5002719;28;83472;-58
2022/06/12 08:27:18;;;;;;;6.32;4.78;;;24.00;99.90;24.40;98644.00;;;;5003081;28;82292;-59
2022/06/12 08:29:45;;;;;;;10.05;5.15;;;24.10;99.90;24.40;98646.00;;;;5002828;28;82545;-58
2022/06/12 08:32:19;;;;;;;9.93;5.00;;;24.00;99.90;24.40;98643.00;;;;5003451;28;82725;-58
2022/06/12 08:34:55;;;;;;;8.32;4.82;;;24.00;99.90;24.40;98648.00;;;;5002978;28;82825;-59
2022/06/12 08:37:30;;;;;;;8.55;5.43;;;23.90;99.90;24.30;98627.00;;;;4987844;28;82062;-58
2022/06/12 08:39:57;;;;;;;8.88;5.00;;;23.90;99.90;24.40;98636.00;;;;4986908;28;82529;-59
2022/06/12 08:42:43;;;;;;;8.02;4.32;;;24.00;99.90;24.50;98637.00;;;;5001690;28;83592;-59
2022/06/12 08:45:21;;;;;;;7.32;4.78;;;24.10;99.90;24.90;98630.00;;;;5002247;28;83431;-59
2022/06/12 08:48:13;;;;;;;8.90;5.05;;;24.50;99.90;25.30;98632.00;;;;5003243;28;81995;-58
2022/06/12 08:51:06;;;;;;;8.77;4.93;;;24.80;99.90;25.00;98627.00;;;;4985221;28;82311;-58
2022/06/12 08:53:51;;;;;;;9.93;5.10;;;24.40;99.90;24.90;98632.00;;;;4984866;28;83167;-58
2022/06/12 08:56:48;;;;;;;6.78;4.90;;;24.40;99.90;24.50;98630.00;;;;4985808;28;83465;-58
2022/06/12 08:59:45;;;;;;;12.98;5.63;;;24.10;99.90;24.20;98635.00;;;;4976593;28;82189;-58
2022/06/12 09:02:32;;;;;;;8.75;5.65;;;23.80;99.90;24.10;98628.00;;;;4966463;28;82477;-58
2022/06/12 09:05:01;;;;;;;7.53;5.80;;;23.60;99.90;24.00;98630.00;;;;4999416;28;83471;-58
2022/06/12 09:07:46;;;;;;;9.20;6.20;;;23.50;99.90;23.90;98626.00;;;;5000585;28;83397;-58
2022/06/12 09:10:18;;;;;;;9.23;5.93;;;23.40;99.90;23.70;98637.00;;;;4982342;28;83140;-58
2022/06/12 09:12:55;;;;;;;9.45;5.45;;;23.30;99.90;23.60;98643.00;;;;4969184;28;82307;-58
2022/06/12 09:15:46;;;;;;;9.18;6.30;;;23.10;99.90;23.30;98644.00;;;;5002432;28;82649;-58
2022/06/12 09:18:31;;;;;;;13.20;6.22;;;22.90;99.90;23.10;98648.00;;;;4985271;28;82373;-58
2022/06/12 09:21:20;;;;;;;10.57;6.35;;;22.70;99.90;23.00;98639.00;;;;4984461;28;82013;-58
2022/06/12 09:24:18;;;;;;;8.70;6.20;;;22.60;99.90;22.80;98636.00;;;;4999269;28;82956;-58
2022/06/12 09:27:03;;;;;;;8.32;6.22;;;22.50;99.90;22.70;98631.00;;;;4997818;28;82746;-59
2022/06/12 09:30:02;;;;;;;10.02;5.68;;;22.40;99.90;22.60;98637.00;;;;4987347;28;82100;-60
2022/06/12 09:32:44;;;;;;;9.35;5.38;;;22.20;99.90;22.50;98632.00;;;;4998456;28;82135;-60
2022/06/12 09:36:00;;;;;;;8.90;5.85;;;22.20;99.90;22.60;98628.00;;;;4998154;28;83329;-59
2022/06/12 09:38:56;;;;;;;9.10;4.88;;;22.20;99.90;22.70;98627.00;;;;4941468;28;83770;-61
2022/06/12 09:41:45;;;;;;;8.32;4.70;;;22.30;99.90;22.80;98616.00;;;;5004867;28;83158;-59
2022/06/12 09:44:13;;;;;;;8.25;5.88;;;22.40;99.90;22.80;98625.00;;;;5004433;28;82746;-59
2022/06/12 09:47:13;;;;;;;7.88;5.38;;;22.40;99.90;23.00;98624.00;;;;5004604;28;85401;-60
2022/06/12 09:50:39;;;;;;;9.43;5.05;;;22.60;99.90;23.20;98615.00;;;;4984255;28;83084;-59
2022/06/12 09:53:13;;;;;;;7.95;5.25;;;22.70;99.90;23.40;98614.00;;;;4996655;28;82278;-60
2022/06/12 09:55:54;;;;;;;9.43;4.88;;;23.00;99.90;23.60;98612.00;;;;5005083;28;81834;-59
2022/06/12 09:58:32;;;;;;;7.80;4.47;;;23.20;99.90;23.90;98616.00;;;;4988600;28;82178;-61
2022/06/12 10:01:10;;;;;;;8.55;5.38;;;23.40;99.90;24.10;98605.00;;;;4984064;28;82812;-59
2022/06/12 10:03:52;;;;;;;8.52;5.63;;;23.60;99.90;24.40;98608.00;;;;5002757;28;83002;-59
2022/06/12 10:06:28;;;;;;;8.75;5.65;;;23.90;99.90;24.60;98594.00;;;;5003164;28;82923;-61
2022/06/12 10:09:22;;;;;;;7.65;5.93;;;24.10;99.90;25.00;98600.00;;;;4987592;28;82698;-61
2022/06/12 10:12:04;;;;;;;9.68;5.78;;;24.50;99.90;25.40;98586.00;;;;4983934;28;83765;-59
2022/06/12 10:14:36;;;;;;;6.53;5.75;;;24.90;99.90;25.50;98589.00;;;;5004724;28;82321;-59
2022/06/12 10:17:15;;;;;;;7.78;5.47;;;24.90;99.90;25.60;98592.00;;;;5004943;28;82413;-60
2022/06/12 10:20:04;;;;;;;13.02;5.80;;;25.10;99.90;25.50;98579.00;;;;4984476;28;82633;-60
2022/06/12 10:22:45;;;;;;;8.10;4.80;;;25.00;99.90;25.50;98583.00;;;;4987573;28;82811;-60
2022/06/12 10:25:27;;;;;;;10.40;5.35;;;25.00;99.90;25.70;98578.00;;;;5001688;28;82614;-60
2022/06/12 10:28:35;;;;;;;6.25;5.15;;;25.10;99.90;25.50;98591.00;;;;4998260;28;82068;-60
2022/06/12 10:31:18;;;;;;;7.88;4.80;;;24.90;99.90;25.30;98578.00;;;;4998088;28;82056;-60
2022/06/12 10:33:57;;;;;;;7.97;4.90;;;24.80;99.90;25.20;98582.00;;;;5004312;28;82969;-60
2022/06/12 10:36:33;;;;;;;9.13;4.60;;;24.70;99.90;25.30;98579.00;;;;5004283;28;83321;-60
2022/06/12 10:39:34;;;;;;;7.63;4.75;;;24.70;99.90;25.50;98580.00;;;;5004001;28;82382;-60
2022/06/12 10:42:06;;;;;;;9.50;4.75;;;24.90;99.90;25.70;98580.00;;;;4985673;28;85120;-61
2022/06/12 10:44:38;;;;;;;7.72;4.45;;;25.20;99.90;25.80;98577.00;;;;5001589;28;83532;-59
2022/06/12 10:47:32;;;;;;;7.00;5.18;;;25.20;99.90;25.80;98579.00;;;;5003003;28;82297;-60
2022/06/12 10:50:17;;;;;;;8.68;5.30;;;25.20;99.90;25.60;98575.00;;;;5004743;28;82077;-60
2022/06/12 10:53:09;;;;;;;9.57;5.90;;;25.00;99.90;25.60;98579.00;;;;4998008;28;82493;-60
2022/06/12 10:56:22;;;;;;;10.13;5.32;;;25.00;99.90;25.70;98568.00;;;;5003818;28;82666;-60
2022/06/12 10:59:16;;;;;;;9.27;4.80;;;25.10;99.90;25.70;98570.00;;;;5004526;28;82261;-59
2022/06/12 11:01:54;;;;;;;8.77;5.90;;;25.00;99.90;25.90;98570.00;;;;5003014;28;83422;-60
2022/06/12 11:04:48;;;;;;;8.68;5.15;;;25.30;99.90;26.10;98566.00;;;;5013148;28;83369;-60
2022/06/12 11:07:58;;;;;;;8.95;6.30;;;25.50;99.90;26.00;98553.00;;;;5003005;28;82683;-60
2022/06/12 11:10:40;;;;;;;12.55;6.07;;;25.40;99.90;26.10;98558.00;;;;4998992;28;83390;-60
2022/06/12 11:13:18;;;;;;;;;;;25.40;99.90;26.00;98563.00;;;;5004396;28;81898;-60
2022/06/12 11:16:10;;;;;;;6.15;4.93;;;25.40;99.90;25.80;98557.00;;;;5005103;28;82183;-59
2022/06/12 11:19:06;;;;;;;9.13;5.13;;;25.20;99.90;25.70;98553.00;;;;5004693;28;83042;-60
2022/06/12 11:22:04;;;;;;;8.45;4.93;;;25.20;99.90;25.90;98546.00;;;;5003728;28;82319;-59
2022/06/12 11:25:09;;;;;;;9.18;4.75;;;25.30;99.90;25.70;98540.00;;;;4977853;28;82134;-60
2022/06/12 11:28:16;;;;;;;8.50;4.75;;;25.20;99.90;25.80;98542.00;;;;5004515;28;83439;-60
2022/06/12 11:31:12;;;;;;;9.10;4.93;;;25.20;99.90;25.90;98537.00;;;;4986372;28;84639;-60
2022/06/12 11:33:53;;;;;;;6.75;4.18;;;25.20;99.90;25.90;98537.00;;;;4985659;28;85781;-60
2022/06/12 11:36:46;;;;;;;6.95;4.65;;;25.30;99.90;25.90;98540.00;;;;5003562;28;82016;-61
2022/06/12 11:39:42;;;;;;;6.93;4.22;;;25.30;99.90;26.00;98548.00;;;;5002323;28;83424;-60
2022/06/12 11:42:51;;;;;;;6.38;4.00;;;25.40;99.90;25.80;98529.00;;;;5000497;28;82361;-61
2022/06/12 11:45:42;;;;;;;7.68;4.05;;;25.30;99.90;25.60;98538.00;;;;4986024;28;82207;-60
2022/06/12 11:48:35;;;;;;;;;;;25.20;99.90;25.40;98525.00;;;;5004278;28;82248;-61
2022/06/12 11:51:34;;;;;;;5.05;4.13;;;25.00;99.90;25.10;98534.00;;;;5005174;28;82265;-60
2022/06/12 11:54:16;;;;;;;6.90;3.67;;;24.70;99.90;24.90;98531.00;;;;5003034;28;82517;-61
2022/06/12 11:56:51;;;;;;;;;;;24.50;99.90;24.90;98509.00;;;;5002948;28;83383;-60
2022/06/12 11:59:41;;;;;;;7.25;3.70;;;24.50;99.90;24.90;98515.00;;;;4999818;28;83050;-60
2022/06/12 12:02:50;;;;;;;9.60;4.18;;;24.50;99.90;25.00;98506.00;;;;5001903;28;82334;-60
2022/06/12 12:05:36;;;;;;;5.95;3.70;;;24.60;99.90;25.30;98510.00;;;;5004113;28;82641;-60
2022/06/12 12:08:29;;;;;;;11.38;3.80;;;24.90;99.90;25.50;98503.00;;;;5003919;28;82984;-60